Pagrindinis puslapis
METAR-TAF:

METAR-TAF

Oro uostai :

Ube, Japonija

platuma: 33-57N, ilguma: 131-15E, Aukštis: 5 m

Dabartinis oras

Ataskaita buvo paskelbta 2 valandos ir 35 minutes, ne 12:00 UTC
Vėjas 3 kt iš Šiaurės/Šiaurės Vakarų, svyruoja nuo Vakarų/Šiaurės Vakarų ir Šiaurės/Šiaurės Rytų
Temperatūra 6°C
Drėgmė 65%
Slėgis 1026 hPa
Matomumas 10 km arba daugiau
Mažai debesys ne aukštis 3000 ft
Su prošvaistėmis ne aukštis 4500 ft

METAR: RJDC 071200Z 33003KT 300V030 9999 FEW030 BKN045 06/00 Q1026

Laikas: 23:35 (14:35 UTC)


TAF: trūkstamas

Orai ataskaitas ir orų prognozės (METAR, TAF).

turimą stotys yra geltonos ir raudonos taškus žemėlapyje.

Perkelti pele per norėdami pamatyti stoties vardą.

Tada spustelėkite, norėdami matyti oro stebėjimo ir prognozės.

Norėdami pakeisti žemėlapį: spustelėkite ant žalios mygtukų su juodo kryžiaus žemyn,; žalią mygtuką su brūkšneliu, jei norite nutolinti; arba žalių rodyklių gretimoms žemėlapius.


METAR-TAF: